Airfield :
LOGIN :

Register | Disclaimer

   EN    FR    IT 

 










Legend :    VFR   Marginal VFR   IFR   Intensive IFR   Very Intensive IFR
Visi :
Ceiling :
>= 8 km
>= 3000ft
5 to 8 km
1000 to 3000 ft
1500m to 5 km
500 to 1000 ft
800 to 1500m
200 to 500 ft
< 800m
< 200 ft
Symbols :   Thunderstorms  Fog  Heavy snow  Heavy precipitations  Wind > 20 kt
SIGMETs :     Misc.  Thunderstorms  Icing  Turbulence  Mountain Waves  Volcanic Ashes







- Airport Elevation : 266 ft
- IATA code : NCL
- Download approach charts


EGNT - Newcastle

CURRENT METAR :
  • 241620Z 10008KT 060V170 9999 FEW045 14/09 Q1015

EXPIRED METARs :
  • 241550Z 10008KT 070V170 9999 FEW045 15/10 Q1015
  • 241520Z 08010KT 9999 SCT045 12/09 Q1015
  • 241450Z 07008KT 050V110 9999 SCT040 13/09 Q1015
  • 241420Z 08008KT 9999 SCT042 14/09 Q1015
  • 241350Z 07008KT 040V100 9999 SCT042 15/09 Q1015

TAF TAF EGNT
Valid from the 24 at 12:00 until the 25 at 12:00 UTC


241056Z 2412/2512 28012KT 9999 SCT040
PROB30 2412/2419 10006KT
BECMG 2503/2506 VRB03KT
PROB30
TEMPO 2503/2507 8000 BKN014
ATIS : +44 191 214 3400
No reported NOTAMs for that airfield.



MET'MAP, your aeronautical weather chart ! - Copyright ORBIFLY December 2007 - Disclaimer

ORBIFLY MET'MAP TEAM :

Programming & Development : Alexandra Zaïnal
Concept & Development : Baudouin d'Aumeries
Co-Development & Prog : Marc-Olivier Méhu
Technical & hardware support : Manuel Goepfert

Contact : metmap@orbifly.com




SOURCES & CREDITS :

   NOAA